KLOT/LOT METAR and TAF weather

Enter ICAO airport designator
Station Type Date Time Source
KLOT METAR 2020/07/12 03:15 UTC NOAA

KLOT 120315Z AUTO 28021G33KT 10SM BKN041 BKN070 22/17 A2986 RMK AO2 LTG DSNT S THRU W T02200165


Station Type Date Time Source
KLOT Decoded METAR 2020/07/12 03:15 UTC NOAA

Chicago/Romeoville, Lewis University Airport, IL, United States (KLOT) 41-36-30N 088-05-39W
Jul 11, 2020 - 11:15 PM EDT / 2020.07.12 0315 UTC
Wind: from the W (280 degrees) at 24 MPH (21 KT) gusting to 38 MPH (33 KT):0
Visibility: 10 mile(s):0
Sky conditions: mostly cloudy
Weather: Lightning observed
Temperature: 71.6 F (22.0 C)
Dew Point: 61.7 F (16.5 C)
Relative Humidity: 70%
Pressure (altimeter): 29.86 in. Hg (1011 hPa)
ob: KLOT 120315Z AUTO 28021G33KT 10SM BKN041 BKN070 22/17 A2986 RMK AO2 LTG DSNT S THRU W T02200165
cycle: 3

Station Type Date Time Source
KLOT TAF UTC NOAA

Error!

Example: see airport list